Time;durP1;ratioP1;P1;durP2;ratioP2;P2;SDS_P1;SDS_P2;PMS_P1;PMS_P2;Temp;Humidity;BMP_temperature;BMP_pressure;BME280_temperature;BME280_humidity;BME280_pressure;Samples;Min_cycle;Max_cycle;Signal;HPM_P1;HPM_P2
2023/11/06 00:01:52;;;;;;;8.05;1.60;;;9.40;99.90;;;;;;5011584;28;20057;-78
2023/11/06 00:04:17;;;;;;;7.70;1.40;;;9.40;99.90;;;;;;5029833;28;20049;-76
2023/11/06 00:06:43;;;;;;;17.02;1.98;;;9.40;99.90;;;;;;5012451;28;20033;-77
2023/11/06 00:09:09;;;;;;;8.13;1.10;;;9.30;99.90;;;;;;5028970;28;20092;-77
2023/11/06 00:11:34;;;;;;;5.13;1.17;;;9.40;99.90;;;;;;5029554;28;20080;-77
2023/11/06 00:14:00;;;;;;;8.32;1.00;;;9.40;99.90;;;;;;5028501;28;20029;-77
2023/11/06 00:16:26;;;;;;;8.52;1.55;;;9.40;99.90;;;;;;5010088;28;20038;-77
2023/11/06 00:18:52;;;;;;;3.40;1.15;;;9.40;99.90;;;;;;5009492;28;20042;-77
2023/11/06 00:21:21;;;;;;;7.32;1.15;;;9.40;99.90;;;;;;5020784;28;20041;-76
2023/11/06 00:23:47;;;;;;;9.48;1.55;;;9.40;99.90;;;;;;5029618;28;20048;-76
2023/11/06 00:26:16;;;;;;;4.18;0.90;;;9.50;99.90;;;;;;5010901;28;20037;-76
2023/11/06 00:28:42;;;;;;;12.77;1.95;;;9.40;99.90;;;;;;5029326;28;20037;-75
2023/11/06 00:31:08;;;;;;;6.55;0.95;;;9.40;99.90;;;;;;5028674;28;20364;-76
2023/11/06 00:33:34;;;;;;;3.50;1.13;;;9.40;99.90;;;;;;5011570;28;20055;-75
2023/11/06 00:35:59;;;;;;;2.78;0.77;;;9.40;99.90;;;;;;5010789;28;20469;-76
2023/11/06 00:38:26;;;;;;;7.30;1.00;;;9.40;99.90;;;;;;5030586;28;20041;-78
2023/11/06 00:40:51;;;;;;;5.78;0.73;;;9.40;99.90;;;;;;5010711;28;20040;-76
2023/11/06 00:43:17;;;;;;;8.60;1.05;;;9.40;99.90;;;;;;5029230;28;20030;-76
2023/11/06 00:45:43;;;;;;;8.77;1.13;;;9.40;99.90;;;;;;5030476;28;20050;-76
2023/11/06 00:48:08;;;;;;;7.00;0.80;;;9.40;99.90;;;;;;5010320;28;20048;-76
2023/11/06 00:50:34;;;;;;;5.38;0.82;;;9.40;99.90;;;;;;5029347;28;20053;-77
2023/11/06 00:53:00;;;;;;;5.10;0.82;;;9.40;99.90;;;;;;5010279;28;20125;-76
2023/11/06 00:55:28;;;;;;;9.20;1.05;;;9.40;99.90;;;;;;5028752;28;20483;-76
2023/11/06 00:57:54;;;;;;;7.13;0.90;;;9.40;99.90;;;;;;5005802;28;20034;-76
2023/11/06 01:00:22;;;;;;;3.20;0.73;;;9.40;99.90;;;;;;5011353;28;20050;-77
2023/11/06 01:02:49;;;;;;;4.82;0.75;;;9.50;99.90;;;;;;5029014;28;20037;-77
2023/11/06 01:05:15;;;;;;;5.00;1.42;;;9.50;99.90;;;;;;5028298;28;20044;-76
2023/11/06 01:07:40;;;;;;;1.95;0.38;;;9.50;99.90;;;;;;5028634;28;20030;-76
2023/11/06 01:10:07;;;;;;;2.20;0.60;;;9.40;99.90;;;;;;5026166;28;20029;-76
2023/11/06 01:12:33;;;;;;;2.83;0.80;;;9.40;99.90;;;;;;5028942;28;20462;-76
2023/11/06 01:14:59;;;;;;;4.68;0.60;;;9.40;99.90;;;;;;5009640;28;20908;-77
2023/11/06 01:17:25;;;;;;;3.25;0.50;;;9.40;99.90;;;;;;5028821;28;20029;-76
2023/11/06 01:19:51;;;;;;;5.13;1.10;;;9.40;99.90;;;;;;5009636;28;20030;-76
2023/11/06 01:22:17;;;;;;;6.90;0.95;;;9.40;99.90;;;;;;5010918;28;20033;-76
2023/11/06 01:24:43;;;;;;;6.72;0.80;;;9.40;99.90;;;;;;5011967;28;20064;-76
2023/11/06 01:27:09;;;;;;;7.28;1.38;;;9.40;99.90;;;;;;5028810;28;20372;-77
2023/11/06 01:29:35;;;;;;;7.18;1.40;;;9.40;99.90;;;;;;5029162;28;20409;-77
2023/11/06 01:32:01;;;;;;;3.45;0.80;;;9.30;99.90;;;;;;5009922;28;20100;-76
2023/11/06 01:34:27;;;;;;;1.55;0.50;;;9.30;99.90;;;;;;5010702;28;20116;-78
2023/11/06 01:36:53;;;;;;;9.95;1.23;;;9.30;99.90;;;;;;5009662;28;20116;-77
2023/11/06 01:39:18;;;;;;;2.80;1.55;;;9.30;99.90;;;;;;5028398;28;20041;-77
2023/11/06 01:41:46;;;;;;;3.88;1.02;;;9.40;99.90;;;;;;5010252;28;20120;-76
2023/11/06 01:44:12;;;;;;;3.38;1.63;;;9.40;99.90;;;;;;5009685;28;20021;-76
2023/11/06 01:46:37;;;;;;;3.55;1.30;;;9.40;99.90;;;;;;5027801;28;20060;-76
2023/11/06 01:49:06;;;;;;;6.80;0.93;;;9.40;99.90;;;;;;5009882;28;20128;-76
2023/11/06 01:51:35;;;;;;;11.63;1.80;;;9.40;99.90;;;;;;5010625;28;20069;-76
2023/11/06 01:54:01;;;;;;;9.15;1.30;;;9.40;99.90;;;;;;5017842;28;20504;-77
2023/11/06 01:56:28;;;;;;;4.47;1.20;;;9.30;99.90;;;;;;5010298;28;20041;-76
2023/11/06 01:58:53;;;;;;;7.25;1.02;;;9.30;99.90;;;;;;5027043;28;20037;-75
2023/11/06 02:01:19;;;;;;;7.03;0.90;;;9.30;99.90;;;;;;5028287;28;20483;-76
2023/11/06 02:03:45;;;;;;;4.47;0.95;;;9.20;99.90;;;;;;5027951;28;20033;-77
2023/11/06 02:06:11;;;;;;;9.25;1.67;;;9.30;99.90;;;;;;5027035;28;20033;-76
2023/11/06 02:08:37;;;;;;;4.10;1.38;;;9.20;99.90;;;;;;5028378;28;20038;-77
2023/11/06 02:11:03;;;;;;;8.75;1.02;;;9.20;99.90;;;;;;5027028;28;20030;-76
2023/11/06 02:13:30;;;;;;;8.15;1.30;;;9.20;99.90;;;;;;5028318;28;20410;-76
2023/11/06 02:15:55;;;;;;;5.65;1.10;;;9.30;99.90;;;;;;5026948;28;20033;-77
2023/11/06 02:18:24;;;;;;;11.43;1.55;;;9.20;99.90;;;;;;5012383;28;20055;-76
2023/11/06 02:20:54;;;;;;;4.82;1.25;;;9.30;99.90;;;;;;5009472;28;20132;-76
2023/11/06 02:23:24;;;;;;;6.57;1.45;;;9.30;99.90;;;;;;5010603;28;20033;-76
2023/11/06 02:25:49;;;;;;;5.90;1.80;;;9.30;99.90;;;;;;5026842;28;20048;-76
2023/11/06 02:28:15;;;;;;;5.40;1.55;;;9.30;99.90;;;;;;5010028;28;20042;-76
2023/11/06 02:30:40;;;;;;;6.18;1.30;;;9.30;99.90;;;;;;5027850;28;20073;-75
2023/11/06 02:33:06;;;;;;;8.38;1.30;;;9.30;99.90;;;;;;5026912;28;20080;-76
2023/11/06 02:35:31;;;;;;;9.80;2.28;;;9.20;99.90;;;;;;5027589;28;20486;-76
2023/11/06 02:37:57;;;;;;;6.82;1.60;;;9.30;99.90;;;;;;5026562;28;20037;-76
2023/11/06 02:40:22;;;;;;;9.45;2.00;;;9.20;99.90;;;;;;5027641;28;20321;-75
2023/11/06 02:42:48;;;;;;;10.45;1.75;;;9.20;99.90;;;;;;5010127;28;20422;-77
2023/11/06 02:45:14;;;;;;;7.47;1.30;;;9.20;99.90;;;;;;5027094;28;20112;-76
2023/11/06 02:47:40;;;;;;;11.90;1.85;;;9.10;99.90;;;;;;5027640;28;20048;-76
2023/11/06 02:50:06;;;;;;;6.43;1.65;;;9.20;99.90;;;;;;5026751;28;20515;-77
2023/11/06 02:52:32;;;;;;;9.05;1.98;;;9.10;99.90;;;;;;5027795;28;20029;-77
2023/11/06 02:54:57;;;;;;;6.72;1.35;;;9.00;99.90;;;;;;5008758;28;20034;-77
2023/11/06 02:57:23;;;;;;;6.30;1.38;;;9.10;99.90;;;;;;5027861;28;20034;-76
2023/11/06 02:59:49;;;;;;;5.10;1.40;;;9.10;99.90;;;;;;5013044;28;20052;-78
2023/11/06 03:02:14;;;;;;;10.38;2.20;;;9.10;99.90;;;;;;5013375;28;20030;-77
2023/11/06 03:04:40;;;;;;;3.58;1.15;;;9.10;99.90;;;;;;5013286;28;20061;-76
2023/11/06 03:07:06;;;;;;;6.45;1.55;;;9.10;99.90;;;;;;5031119;28;20033;-76
2023/11/06 03:09:32;;;;;;;6.97;1.33;;;9.10;99.90;;;;;;5032757;28;20029;-76
2023/11/06 03:11:57;;;;;;;6.07;1.52;;;9.10;99.90;;;;;;5030744;28;20201;-75
2023/11/06 03:14:23;;;;;;;5.13;0.82;;;9.20;99.90;;;;;;5013256;28;20029;-77
2023/11/06 03:16:49;;;;;;;10.30;1.48;;;9.10;99.90;;;;;;5012365;28;20573;-77
2023/11/06 03:19:14;;;;;;;9.85;1.55;;;9.20;99.90;;;;;;5013334;28;20545;-76
2023/11/06 03:21:40;;;;;;;13.13;3.17;;;9.10;99.90;;;;;;5013358;28;20095;-78
2023/11/06 03:24:07;;;;;;;4.85;0.88;;;9.10;99.90;;;;;;5011974;28;20112;-77
2023/11/06 03:26:34;;;;;;;7.05;1.25;;;9.10;99.90;;;;;;5013212;28;20587;-76
2023/11/06 03:28:59;;;;;;;9.93;2.30;;;9.10;99.90;;;;;;5012247;28;20033;-77
2023/11/06 03:31:25;;;;;;;5.65;1.65;;;9.00;99.90;;;;;;5013048;28;20372;-76
2023/11/06 03:33:50;;;;;;;6.10;1.17;;;9.00;99.90;;;;;;5029712;28;20024;-77
2023/11/06 03:36:16;;;;;;;11.38;1.70;;;9.00;99.90;;;;;;5030580;28;20030;-77
2023/11/06 03:38:41;;;;;;;7.68;1.45;;;8.90;99.90;;;;;;5030681;28;20037;-78
2023/11/06 03:41:07;;;;;;;5.60;1.02;;;8.90;99.90;;;;;;5029626;28;20026;-76
2023/11/06 03:43:33;;;;;;;7.13;1.77;;;8.90;99.90;;;;;;5012824;28;20608;-76
2023/11/06 03:45:58;;;;;;;7.18;1.20;;;8.80;99.90;;;;;;5029268;28;20038;-76
2023/11/06 03:48:24;;;;;;;6.90;0.85;;;8.90;99.90;;;;;;5030487;28;20033;-76
2023/11/06 03:50:49;;;;;;;4.85;1.35;;;8.90;99.90;;;;;;5011287;28;20067;-76
2023/11/06 03:53:15;;;;;;;12.48;2.45;;;8.80;99.90;;;;;;5012793;28;20029;-76
2023/11/06 03:55:41;;;;;;;8.85;1.05;;;8.80;99.90;;;;;;5030355;28;20061;-76
2023/11/06 03:58:07;;;;;;;11.50;2.00;;;8.80;99.90;;;;;;5029695;28;20128;-75
2023/11/06 04:00:33;;;;;;;7.88;0.80;;;8.80;99.90;;;;;;5013872;28;20021;-77
2023/11/06 04:02:59;;;;;;;3.40;1.17;;;8.80;99.90;;;;;;5029898;28;20030;-76
2023/11/06 04:05:25;;;;;;;9.60;0.82;;;8.80;99.90;;;;;;5012643;28;20493;-76
2023/11/06 04:07:51;;;;;;;5.95;0.90;;;8.70;99.90;;;;;;5011638;28;20121;-77
2023/11/06 04:10:16;;;;;;;6.90;1.30;;;8.70;99.90;;;;;;5028863;28;20026;-78
2023/11/06 04:12:42;;;;;;;4.20;0.50;;;8.70;99.90;;;;;;5017857;28;20098;-77
2023/11/06 04:15:09;;;;;;;8.48;0.70;;;8.70;99.90;;;;;;5011046;28;20181;-76
2023/11/06 04:17:35;;;;;;;2.53;0.40;;;8.70;99.90;;;;;;5030797;28;20039;-78
2023/11/06 04:20:01;;;;;;;3.38;0.85;;;8.70;99.90;;;;;;5011327;28;20033;-77
2023/11/06 04:22:26;;;;;;;6.22;0.80;;;8.70;99.90;;;;;;5012135;28;20056;-77
2023/11/06 04:24:52;;;;;;;6.85;0.73;;;8.70;99.90;;;;;;5028936;28;20037;-76
2023/11/06 04:27:18;;;;;;;6.50;1.00;;;8.70;99.90;;;;;;5029557;28;20029;-76
2023/11/06 04:29:43;;;;;;;8.82;0.80;;;8.60;99.90;;;;;;5029861;28;20120;-75
2023/11/06 04:32:09;;;;;;;4.07;0.75;;;8.70;99.90;;;;;;5028774;28;20042;-76
2023/11/06 04:34:35;;;;;;;6.32;0.90;;;8.60;99.90;;;;;;5011763;28;20021;-76
2023/11/06 04:37:00;;;;;;;2.40;0.63;;;8.60;99.90;;;;;;5010974;28;20055;-76
2023/11/06 04:39:26;;;;;;;0.77;0.35;;;8.60;99.90;;;;;;5012143;28;20169;-76
2023/11/06 04:41:51;;;;;;;3.67;0.57;;;8.60;99.90;;;;;;5010953;28;20045;-77
2023/11/06 04:44:17;;;;;;;1.70;0.47;;;8.60;99.90;;;;;;5011806;28;20075;-76
2023/11/06 04:46:44;;;;;;;2.58;0.40;;;8.60;99.90;;;;;;5029325;28;20473;-75
2023/11/06 04:49:09;;;;;;;8.38;0.80;;;8.60;99.90;;;;;;5028804;28;20553;-76
2023/11/06 04:51:35;;;;;;;4.45;0.60;;;8.50;99.90;;;;;;5011611;28;20029;-76
2023/11/06 04:54:00;;;;;;;3.65;0.40;;;8.50;99.90;;;;;;5010645;28;20025;-77
2023/11/06 04:56:26;;;;;;;4.47;0.47;;;8.50;99.90;;;;;;5029235;28;20037;-76
2023/11/06 04:58:51;;;;;;;7.15;0.68;;;8.50;99.90;;;;;;5028010;28;20514;-78
2023/11/06 05:01:17;;;;;;;7.22;1.15;;;8.50;99.90;;;;;;5028999;28;20550;-77
2023/11/06 05:03:43;;;;;;;4.38;0.60;;;8.50;99.90;;;;;;5029122;28;20473;-77
2023/11/06 05:06:09;;;;;;;4.30;0.40;;;8.50;99.90;;;;;;5027642;28;20050;-77
2023/11/06 05:08:35;;;;;;;8.48;0.57;;;8.50;99.90;;;;;;5011071;28;20473;-76
2023/11/06 05:11:01;;;;;;;4.28;0.63;;;8.50;99.90;;;;;;5028272;28;20038;-77
2023/11/06 05:13:27;;;;;;;2.58;0.20;;;8.50;99.90;;;;;;5029140;28;20102;-77
2023/11/06 05:15:53;;;;;;;3.97;0.40;;;8.50;99.90;;;;;;5027563;28;20116;-76
2023/11/06 05:18:18;;;;;;;14.23;1.05;;;8.50;99.90;;;;;;5010623;28;20041;-77
2023/11/06 05:20:44;;;;;;;1.90;0.30;;;8.50;99.90;;;;;;5028691;28;20437;-77
2023/11/06 05:23:10;;;;;;;3.83;0.57;;;8.50;99.90;;;;;;5009854;28;20093;-78
2023/11/06 05:25:36;;;;;;;4.28;0.60;;;8.50;99.90;;;;;;5011136;28;20121;-75
2023/11/06 05:28:03;;;;;;;5.45;1.17;;;8.50;99.90;;;;;;5010026;28;20030;-77
2023/11/06 05:30:28;;;;;;;2.42;0.55;;;8.50;99.90;;;;;;5028451;28;20029;-76
2023/11/06 05:32:54;;;;;;;3.75;0.50;;;8.50;99.90;;;;;;5013800;28;20037;-76
2023/11/06 05:35:20;;;;;;;6.40;1.23;;;8.50;99.90;;;;;;5039582;28;20124;-76
2023/11/06 05:37:49;;;;;;;7.40;1.02;;;8.50;99.90;;;;;;5028586;28;20030;-76
2023/11/06 05:40:14;;;;;;;6.32;0.73;;;8.50;99.90;;;;;;5006835;28;20517;-76
2023/11/06 05:42:40;;;;;;;3.85;0.68;;;8.50;99.90;;;;;;5028961;28;20029;-77
2023/11/06 05:45:09;;;;;;;3.13;0.80;;;8.50;99.90;;;;;;5027572;28;20037;-78
2023/11/06 05:47:35;;;;;;;5.45;0.50;;;8.50;99.90;;;;;;5010795;28;20038;-77
2023/11/06 05:50:01;;;;;;;8.70;0.50;;;8.50;99.90;;;;;;5009831;28;20040;-76
2023/11/06 05:52:27;;;;;;;5.97;0.95;;;8.50;99.90;;;;;;5008431;28;20483;-76
2023/11/06 05:54:53;;;;;;;4.50;0.45;;;8.50;99.90;;;;;;5023576;28;20041;-77
2023/11/06 05:57:18;;;;;;;4.32;0.70;;;8.50;99.90;;;;;;5025673;28;20079;-76
2023/11/06 05:59:44;;;;;;;6.72;0.70;;;8.50;99.90;;;;;;5024215;28;20477;-76
2023/11/06 06:02:10;;;;;;;5.15;1.10;;;8.50;99.90;;;;;;5012436;28;20064;-76
2023/11/06 06:04:36;;;;;;;3.50;0.75;;;8.50;99.90;;;;;;5016267;28;20025;-75
2023/11/06 06:07:01;;;;;;;4.43;0.93;;;8.60;99.90;;;;;;5019122;28;20026;-77
2023/11/06 06:09:27;;;;;;;6.82;1.83;;;8.60;99.90;;;;;;5020292;28;20022;-76
2023/11/06 06:11:53;;;;;;;10.48;1.13;;;8.60;99.90;;;;;;5024142;28;20045;-76
2023/11/06 06:14:20;;;;;;;4.32;1.05;;;8.60;99.90;;;;;;5025421;28;20049;-76
2023/11/06 06:16:49;;;;;;;6.60;1.00;;;8.60;99.90;;;;;;5025068;28;20037;-78
2023/11/06 06:19:15;;;;;;;6.25;1.75;;;8.60;99.90;;;;;;5024610;28;20049;-75
2023/11/06 06:21:41;;;;;;;8.85;0.82;;;8.60;99.90;;;;;;5017071;28;20033;-77
2023/11/06 06:24:08;;;;;;;4.40;1.30;;;8.60;99.90;;;;;;5007116;28;20041;-76
2023/11/06 06:26:37;;;;;;;10.40;0.90;;;8.60;99.90;;;;;;5025079;28;20072;-76
2023/11/06 06:29:03;;;;;;;5.30;1.38;;;8.60;99.90;;;;;;5013013;28;20048;-76
2023/11/06 06:31:29;;;;;;;11.77;2.92;;;8.60;99.90;;;;;;5011746;28;20029;-76
2023/11/06 06:33:55;;;;;;;7.75;1.30;;;8.70;99.90;;;;;;5010688;28;20466;-77
2023/11/06 06:36:20;;;;;;;8.13;1.63;;;8.60;99.90;;;;;;5028776;28;20021;-76
2023/11/06 06:38:46;;;;;;;5.88;0.75;;;8.60;99.90;;;;;;5021222;28;20041;-76
2023/11/06 06:41:12;;;;;;;9.07;1.13;;;8.60;99.90;;;;;;5027913;28;20037;-77
2023/11/06 06:43:37;;;;;;;8.55;1.38;;;8.60;99.90;;;;;;5017708;28;20068;-76
2023/11/06 06:46:03;;;;;;;7.15;0.75;;;8.60;99.90;;;;;;5014679;28;20403;-75
2023/11/06 06:48:29;;;;;;;7.40;1.00;;;8.60;99.90;;;;;;5029480;28;20041;-75
2023/11/06 06:50:55;;;;;;;5.50;0.98;;;8.60;99.90;;;;;;5017709;28;20108;-75
2023/11/06 06:53:20;;;;;;;4.82;1.23;;;8.60;99.90;;;;;;5028907;28;20052;-76
2023/11/06 06:55:46;;;;;;;9.13;1.40;;;8.50;99.90;;;;;;5021828;28;20072;-76
2023/11/06 06:58:12;;;;;;;5.32;1.27;;;8.50;99.90;;;;;;5014099;28;20526;-76
2023/11/06 07:00:37;;;;;;;11.40;1.15;;;8.50;99.90;;;;;;5029080;28;20425;-76
2023/11/06 07:03:06;;;;;;;9.30;1.17;;;8.50;99.90;;;;;;5027474;28;20087;-76
2023/11/06 07:05:35;;;;;;;5.78;0.70;;;8.50;99.90;;;;;;5026609;28;20458;-74
2023/11/06 07:08:01;;;;;;;6.10;1.02;;;8.60;99.90;;;;;;5019319;28;20098;-75
2023/11/06 07:10:27;;;;;;;8.15;0.95;;;8.50;99.90;;;;;;5028179;28;20051;-76
2023/11/06 07:12:55;;;;;;;9.02;1.23;;;8.50;99.90;;;;;;5010712;28;20507;-75
2023/11/06 07:15:22;;;;;;;4.82;0.82;;;8.60;99.90;;;;;;5013885;28;20681;-76
2023/11/06 07:17:48;;;;;;;7.68;1.08;;;8.50;99.90;;;;;;5019445;28;20491;-75
2023/11/06 07:20:15;;;;;;;9.68;1.40;;;8.50;99.90;;;;;;5017515;28;20174;-75
2023/11/06 07:22:41;;;;;;;7.35;0.77;;;8.50;99.90;;;;;;5013601;28;20033;-76
2023/11/06 07:25:08;;;;;;;17.42;2.58;;;8.50;99.90;;;;;;5026986;28;20029;-74
2023/11/06 07:27:34;;;;;;;4.78;0.60;;;8.50;99.90;;;;;;5015509;28;20376;-77
2023/11/06 07:30:03;;;;;;;3.13;0.57;;;8.50;99.90;;;;;;5027121;28;20029;-76
2023/11/06 07:32:29;;;;;;;4.72;0.63;;;8.60;99.90;;;;;;5027883;28;20061;-76
2023/11/06 07:34:55;;;;;;;3.85;0.50;;;8.70;99.90;;;;;;5026763;28;20100;-76
2023/11/06 07:37:21;;;;;;;4.75;1.02;;;8.60;99.90;;;;;;5028515;28;20033;-76
2023/11/06 07:39:46;;;;;;;2.38;0.90;;;8.60;99.90;;;;;;5014784;28;20049;-77
2023/11/06 07:42:12;;;;;;;5.60;0.80;;;8.60;99.90;;;;;;5015800;28;20052;-77
2023/11/06 07:44:41;;;;;;;6.35;0.98;;;8.60;99.90;;;;;;5010271;28;20038;-78
2023/11/06 07:47:08;;;;;;;3.88;0.88;;;8.60;99.90;;;;;;5027306;28;20555;-76
2023/11/06 07:49:34;;;;;;;7.72;0.73;;;8.70;99.90;;;;;;5028340;28;20371;-77
2023/11/06 07:52:04;;;;;;;6.05;0.52;;;8.60;99.90;;;;;;5012392;28;20034;-76
2023/11/06 07:54:29;;;;;;;4.95;0.55;;;8.70;99.90;;;;;;5025956;28;20588;-77
2023/11/06 07:56:55;;;;;;;7.15;0.60;;;8.70;99.90;;;;;;5026688;28;20105;-77
2023/11/06 07:59:21;;;;;;;5.90;1.25;;;8.80;99.90;;;;;;5017104;28;20487;-76
2023/11/06 08:01:46;;;;;;;19.48;0.95;;;8.80;99.90;;;;;;5024860;28;20036;-78
2023/11/06 08:04:12;;;;;;;6.55;1.08;;;8.80;99.90;;;;;;5026094;28;20116;-77
2023/11/06 08:06:37;;;;;;;6.78;0.88;;;8.90;99.90;;;;;;5027790;28;20040;-77
2023/11/06 08:09:03;;;;;;;9.45;0.60;;;8.90;99.90;;;;;;5020595;28;20514;-77
2023/11/06 08:11:29;;;;;;;8.43;0.93;;;8.90;99.90;;;;;;5026473;28;20680;-77
2023/11/06 08:13:54;;;;;;;5.57;0.77;;;9.00;99.90;;;;;;5026100;28;20038;-77
2023/11/06 08:16:20;;;;;;;5.88;0.93;;;9.10;99.90;;;;;;5011389;28;20056;-78
2023/11/06 08:18:45;;;;;;;6.72;0.70;;;9.20;99.90;;;;;;5027521;28;20507;-77
2023/11/06 08:21:11;;;;;;;5.38;1.55;;;9.30;99.90;;;;;;5015926;28;20112;-76
2023/11/06 08:23:36;;;;;;;7.38;0.90;;;9.30;99.90;;;;;;5025901;28;20025;-77
2023/11/06 08:26:04;;;;;;;2.33;0.50;;;9.40;99.90;;;;;;5025891;28;20045;-77
2023/11/06 08:28:30;;;;;;;5.40;0.68;;;9.40;99.90;;;;;;5026029;28;20065;-77
2023/11/06 08:30:55;;;;;;;3.80;0.50;;;9.50;99.90;;;;;;5026510;28;20068;-77
2023/11/06 08:33:21;;;;;;;11.32;2.85;;;9.50;99.90;;;;;;5026721;28;20079;-77
2023/11/06 08:35:46;;;;;;;3.28;0.40;;;9.60;99.90;;;;;;5028629;28;20037;-77
2023/11/06 08:38:12;;;;;;;6.70;0.80;;;9.60;99.90;;;;;;5026020;28;20037;-75
2023/11/06 08:40:38;;;;;;;3.70;0.75;;;9.70;99.90;;;;;;5014456;28;20451;-77
2023/11/06 08:43:04;;;;;;;7.45;0.85;;;9.80;99.90;;;;;;5025864;28;20057;-77
2023/11/06 08:45:29;;;;;;;6.55;0.57;;;9.90;99.90;;;;;;5011878;28;20562;-77
2023/11/06 08:47:55;;;;;;;8.98;1.20;;;10.00;99.90;;;;;;5025585;28;20030;-76
2023/11/06 08:50:21;;;;;;;5.70;0.80;;;10.10;99.90;;;;;;5026968;28;20042;-77
2023/11/06 08:52:46;;;;;;;5.72;1.45;;;10.20;99.90;;;;;;5026155;28;20167;-76
2023/11/06 08:55:12;;;;;;;9.05;2.33;;;10.20;99.90;;;;;;5024688;28;20079;-77
2023/11/06 08:57:38;;;;;;;10.23;1.10;;;10.20;99.90;;;;;;5026845;28;20057;-77
2023/11/06 09:00:08;;;;;;;11.00;1.65;;;10.20;99.90;;;;;;5025225;28;20111;-75
2023/11/06 09:02:34;;;;;;;5.20;0.85;;;10.20;99.90;;;;;;5013312;28;20033;-78
2023/11/06 09:05:00;;;;;;;13.88;1.60;;;10.20;99.90;;;;;;5025841;28;20034;-75
2023/11/06 09:07:27;;;;;;;9.57;1.10;;;10.30;99.90;;;;;;5027535;28;20502;-77
2023/11/06 09:09:52;;;;;;;9.27;1.73;;;10.40;99.90;;;;;;5014839;28;20380;-75
2023/11/06 09:12:18;;;;;;;7.18;1.42;;;10.40;99.90;;;;;;5015744;28;20040;-76
2023/11/06 09:14:44;;;;;;;6.15;1.60;;;10.40;99.90;;;;;;5026539;28;20144;-76
2023/11/06 09:17:09;;;;;;;8.50;1.33;;;10.40;99.90;;;;;;5026301;28;20044;-77
2023/11/06 09:19:35;;;;;;;8.88;1.90;;;10.40;99.90;;;;;;5026642;28;20084;-76
2023/11/06 09:22:01;;;;;;;9.82;1.80;;;10.40;99.90;;;;;;5010069;28;20025;-78
2023/11/06 09:24:29;;;;;;;8.18;1.35;;;10.40;99.90;;;;;;5026892;28;20517;-77
2023/11/06 09:26:55;;;;;;;13.07;1.98;;;10.40;99.90;;;;;;5025030;28;20152;-75
2023/11/06 09:29:20;;;;;;;4.00;1.30;;;10.40;99.90;;;;;;5026224;28;20033;-77
2023/11/06 09:31:47;;;;;;;9.07;1.55;;;10.40;99.90;;;;;;5026501;28;20403;-77
2023/11/06 09:34:13;;;;;;;9.52;1.70;;;10.50;99.90;;;;;;5017144;28;20172;-77
2023/11/06 09:36:38;;;;;;;7.70;1.08;;;10.50;99.90;;;;;;5020877;28;20125;-76
2023/11/06 09:39:06;;;;;;;12.88;1.52;;;10.50;99.90;;;;;;5015137;28;20068;-77
2023/11/06 09:41:32;;;;;;;14.25;1.13;;;10.50;99.90;;;;;;5026168;28;20028;-76
2023/11/06 09:43:59;;;;;;;10.63;1.02;;;10.60;99.90;;;;;;5023767;28;20057;-78
2023/11/06 09:46:26;;;;;;;4.07;1.08;;;10.60;99.90;;;;;;5014470;28;20082;-76
2023/11/06 09:48:54;;;;;;;5.85;1.00;;;10.70;99.90;;;;;;5023243;28;20061;-76
2023/11/06 09:51:29;;;;;;;3.63;0.98;;;10.80;99.90;;;;;;5025066;28;20025;-77
2023/11/06 09:53:55;;;;;;;4.32;0.45;;;10.90;99.90;;;;;;5024071;28;20029;-78
2023/11/06 09:56:21;;;;;;;4.88;0.85;;;10.90;99.90;;;;;;5026289;28;20049;-77
2023/11/06 09:58:47;;;;;;;4.93;1.38;;;11.00;99.90;;;;;;5025300;28;20390;-76
2023/11/06 10:01:13;;;;;;;9.63;0.70;;;11.10;99.90;;;;;;5024796;28;20034;-76
2023/11/06 10:03:39;;;;;;;12.77;1.20;;;11.20;99.90;;;;;;5025036;28;20187;-76
2023/11/06 10:06:06;;;;;;;8.75;1.10;;;11.10;99.90;;;;;;5024953;28;20180;-77
2023/11/06 10:08:34;;;;;;;7.47;1.88;;;11.10;99.90;;;;;;5011199;28;20060;-77
2023/11/06 10:11:05;;;;;;;4.50;0.77;;;11.10;99.90;;;;;;5024571;28;20041;-76
2023/11/06 10:13:31;;;;;;;7.68;1.05;;;11.00;99.90;;;;;;5016879;28;20033;-76
2023/11/06 10:16:16;;;;;;;5.68;0.65;;;11.00;99.90;;;;;;5009578;28;20033;-77
2023/11/06 10:18:41;;;;;;;7.22;0.88;;;11.00;99.90;;;;;;5009909;28;20076;-76
2023/11/06 10:21:07;;;;;;;14.52;1.92;;;11.00;99.90;;;;;;5011846;28;20554;-76
2023/11/06 10:23:36;;;;;;;6.40;1.25;;;11.10;99.90;;;;;;5024542;28;20029;-77
2023/11/06 10:26:12;;;;;;;6.55;1.02;;;11.10;99.90;;;;;;5024377;28;20061;-78
2023/11/06 10:28:38;;;;;;;6.45;0.63;;;11.10;99.90;;;;;;5022826;28;20503;-76
2023/11/06 10:31:04;;;;;;;4.68;0.80;;;11.20;99.90;;;;;;5024718;28;20818;-78
2023/11/06 10:33:30;;;;;;;7.10;0.65;;;11.20;99.90;;;;;;5026469;28;20038;-77
2023/11/06 10:35:57;;;;;;;14.15;1.73;;;11.20;99.90;;;;;;5025068;28;20790;-77
2023/11/06 10:38:33;;;;;;;3.53;0.50;;;11.20;99.90;;;;;;5014620;28;20548;-75
2023/11/06 10:41:25;;;;;;;4.60;1.10;;;11.10;99.90;;;;;;5019380;28;20576;-76
2023/11/06 10:43:59;;;;;;;8.25;0.80;;;11.00;99.90;;;;;;5024420;28;20038;-77
2023/11/06 10:46:30;;;;;;;1.92;0.40;;;11.10;99.90;;;;;;5019564;28;20789;-77
2023/11/06 10:49:33;;;;;;;6.45;0.73;;;11.20;99.90;;;;;;5025073;28;20041;-77
2023/11/06 10:52:02;;;;;;;10.48;1.55;;;11.30;99.90;;;;;;5013735;28;20541;-76
2023/11/06 10:54:30;;;;;;;4.93;0.90;;;11.30;99.90;;;;;;5025085;28;20053;-77
2023/11/06 10:56:57;;;;;;;3.58;0.50;;;11.30;99.90;;;;;;5022681;28;20495;-78
2023/11/06 10:59:25;;;;;;;3.85;0.50;;;11.30;99.90;;;;;;5019858;28;20042;-77
2023/11/06 11:01:55;;;;;;;5.68;0.52;;;11.30;99.90;;;;;;5021448;28;20515;-77
2023/11/06 11:04:24;;;;;;;6.20;1.17;;;11.40;99.90;;;;;;5023586;28;20119;-76
2023/11/06 11:06:53;;;;;;;4.97;1.35;;;11.60;99.90;;;;;;5009118;28;20292;-77
2023/11/06 11:09:19;;;;;;;7.00;1.00;;;11.60;99.90;;;;;;5022458;28;20529;-77
2023/11/06 11:11:45;;;;;;;4.68;1.00;;;11.80;99.90;;;;;;5011387;28;20087;-75
2023/11/06 11:14:12;;;;;;;4.20;0.82;;;12.10;99.90;;;;;;5011605;28;20042;-77
2023/11/06 11:16:42;;;;;;;3.03;0.55;;;12.10;99.90;;;;;;5024750;28;20498;-77
2023/11/06 11:19:27;;;;;;;3.17;0.47;;;12.10;99.90;;;;;;5025670;28;20040;-77
2023/11/06 11:22:09;;;;;;;2.17;0.38;;;12.00;99.90;;;;;;5022396;28;20078;-75
2023/11/06 11:24:53;;;;;;;3.85;0.50;;;12.00;99.90;;;;;;5026585;28;20037;-77
2023/11/06 11:27:30;;;;;;;2.65;0.70;;;11.90;99.90;;;;;;5025035;28;20041;-74
2023/11/06 11:29:56;;;;;;;3.45;0.68;;;11.80;99.90;;;;;;5025739;28;20099;-76
2023/11/06 11:32:27;;;;;;;5.32;0.50;;;11.80;99.90;;;;;;5012603;28;20503;-77
2023/11/06 11:34:57;;;;;;;9.38;0.70;;;11.90;99.90;;;;;;5024595;28;20518;-76
2023/11/06 11:37:34;;;;;;;2.85;0.57;;;11.90;99.90;;;;;;5032279;28;20040;-75
2023/11/06 11:40:02;;;;;;;4.72;0.57;;;12.00;99.90;;;;;;5019523;28;20045;-78
2023/11/06 11:42:28;;;;;;;3.17;0.52;;;12.00;99.90;;;;;;5027393;28;20044;-76
2023/11/06 11:45:07;;;;;;;4.63;0.52;;;12.10;99.90;;;;;;5026503;28;20116;-77
2023/11/06 11:47:54;;;;;;;2.83;1.02;;;12.10;99.90;;;;;;5018435;28;20136;-76
2023/11/06 11:50:38;;;;;;;3.83;0.70;;;12.10;99.90;;;;;;5011660;28;21293;-77
2023/11/06 11:53:04;;;;;;;1.90;0.70;;;12.00;99.90;;;;;;5005116;28;20099;-76
2023/11/06 11:55:37;;;;;;;4.75;1.38;;;11.90;99.90;;;;;;5006244;28;20034;-76
2023/11/06 11:58:08;;;;;;;4.10;0.47;;;11.90;99.90;;;;;;5004136;28;20049;-76
2023/11/06 12:00:42;;;;;;;7.53;0.70;;;11.90;99.90;;;;;;5008380;28;20132;-77
2023/11/06 12:03:16;;;;;;;5.20;1.25;;;11.90;99.90;;;;;;5019458;28;20503;-76
2023/11/06 12:05:43;;;;;;;3.80;0.88;;;11.90;99.90;;;;;;5025544;28;20478;-76
2023/11/06 12:08:26;;;;;;;7.05;0.90;;;11.80;99.90;;;;;;5025265;28;20051;-76
2023/11/06 12:10:53;;;;;;;3.30;0.77;;;11.80;99.90;;;;;;5023930;28;20037;-77
2023/11/06 12:13:21;;;;;;;7.03;1.05;;;11.70;99.90;;;;;;5025721;28;20116;-77
2023/11/06 12:15:47;;;;;;;5.40;1.20;;;11.60;99.90;;;;;;5024227;28;20049;-75
2023/11/06 12:18:16;;;;;;;5.90;1.42;;;11.70;99.90;;;;;;5023831;28;20037;-77
2023/11/06 12:20:44;;;;;;;6.15;1.08;;;11.70;99.90;;;;;;5015118;28;20562;-76
2023/11/06 12:23:10;;;;;;;7.03;0.82;;;11.60;99.90;;;;;;5023390;28;20565;-76
2023/11/06 12:25:38;;;;;;;3.13;0.50;;;11.70;99.90;;;;;;5013353;28;20067;-76
2023/11/06 12:28:05;;;;;;;4.05;0.80;;;11.60;99.90;;;;;;5013376;28;20037;-76
2023/11/06 12:30:35;;;;;;;5.07;0.90;;;11.60;99.90;;;;;;5024486;28;20545;-76
2023/11/06 12:33:17;;;;;;;3.00;0.60;;;11.50;99.90;;;;;;5024581;28;20064;-76
2023/11/06 12:35:43;;;;;;;7.03;0.88;;;11.50;99.90;;;;;;5021369;28;20037;-78
2023/11/06 12:38:10;;;;;;;8.23;0.80;;;11.40;99.90;;;;;;5022124;28;20104;-78
2023/11/06 12:40:45;;;;;;;5.78;0.45;;;11.40;99.90;;;;;;5025175;28;20030;-77
2023/11/06 12:43:15;;;;;;;11.07;1.30;;;11.40;99.90;;;;;;5024172;28;20040;-77
2023/11/06 12:45:42;;;;;;;;;;;11.40;99.90;;;;;;5017573;28;20034;-76
2023/11/06 12:48:33;;;;;;;8.88;0.80;;;11.50;99.90;;;;;;5023942;28;19917;-76
2023/11/06 12:51:04;;;;;;;2.50;0.40;;;11.50;99.90;;;;;;5022236;28;20065;-78
2023/11/06 12:53:35;;;;;;;4.15;0.65;;;11.50;99.90;;;;;;5024785;28;20487;-77